Hopkins, MN (55305)

3:59 PM CST on February 24, 2018 (GMT -0600)
James Road | | Change Station
Active Advisory: Winter Storm Warning

Elev 938 ft 44.93 °N, 93.43 °W | Updated 36 minutes ago

Snow
Snow
28.4 °F
Feels Like 28 °F
N
1.2
Wind Variable Wind from East
Gusts 4.3 mph

Today
High -- | Low -- °F
--% Chance of Precip.
Yesterday
High -- | Low -- °F
Precip. -- in
Pressure 29.75 in
Visibility 0.2 miles
Clouds
Windchill 28 °F
Dew Point 22 °F
Humidity 76%
Rainfall 0.00 in
Snow Depth Not available.
6:59 AM 5:54 PM
Waxing Gibbous, 68% visible
METAR KFCM 242153Z 03011KT 1/4SM -SN FZFG VV007 M03/M05 A2970 RMK AO2 PRESFR SLP074 P0005 T10331050
Pressure 29.75 in
Visibility 0.2 miles
Clouds
Windchill 28 °F
Dew Point 22 °F
Humidity 76%
Rainfall 0.00 in
Snow Depth Not available.
6:59 AM 5:54 PM
Waxing Gibbous, 68% visible
METAR KFCM 242153Z 03011KT 1/4SM -SN FZFG VV007 M03/M05 A2970 RMK AO2 PRESFR SLP074 P0005 T10331050

Get Your Daily Forecast Email!

Thanks for signing up!

Be on the lookout for a verification email in your inbox.

You'll start receiving severe weather alerts in your inbox..

×

10-Day Weather Forecast

Almanac

Astronomy

Feb. 24, 2018 Rise Set
Actual Time
Civil Twilight
Nautical Twilight
Astronomical Twilight
Moon
Length of Visible Light
Length of Day
Tomorrow will be .
, % of the Moon is Illuminated

Today's Extremes

State Highs State Lows

Community

WunderPhotos

Category 6

Welcome to Category 6. This is the collective home for Weather Underground's featured writeups by Dr. Jeff Masters (right), Bob Henson (left), Chris Burt, and other regular contributors.

Nearby

Air Quality

  Air Quality AQ Index Pollutant
Not available.

Snow Depth

Station Depth Elevation

Earthquake Activity

City Distance Mag. Time & Date
Minimum magnitude displayed is 2.5.

Coastal Water Temperatures

Place Temperature

Stations

Nearby Weather Stations

Station Location Temp. Windchill Dew Point Humidity Wind Precip. Elev Updated Type
                   

Watches & Warnings

Winter Storm Warning
Issued: 2:58 PM CST Feb. 24, 2018 – National Weather Service

... Winter Storm Warning remains in effect until 6 am CST Sunday...

* what... heavy snow and blowing snow expected. Total snow
accumulations of 5 to 8 inches, with localized totals of 9
inches.

* Where... portions of west central Wisconsin and central, east
central, south central and southeast Minnesota.

* When... until 6 am CST Sunday.

* Additional details... plan on difficult travel conditions.
Winds gusting as high as 35 mph will cause areas of blowing
and drifting snow.

Precautionary/preparedness actions...

A Winter Storm Warning for snow and blowing snow means severe
winter weather conditions will make travel very hazardous or
impossible. If you must travel, keep an extra flashlight, food
and water in your vehicle in case of an emergency. The latest
Road conditions for Minnesota can be found at 511mn.Org and for
Wisconsin at 511wi.Gov, or by calling 5 1 1 in either state.